createdAt,value
2023-03-14T00:00:42.300Z,0.700
2023-03-14T00:01:41.988Z,0.500
2023-03-14T00:02:42.855Z,0.600
2023-03-14T00:03:42.628Z,0.700
2023-03-14T00:04:42.292Z,0.800
2023-03-14T00:05:41.836Z,0.500
2023-03-14T00:06:42.433Z,0.900
2023-03-14T00:07:41.944Z,0.600
2023-03-14T00:08:42.521Z,0.800
2023-03-14T00:09:42.045Z,0.800
2023-03-14T00:10:42.578Z,0.600
2023-03-14T00:11:42.122Z,0.600
2023-03-14T00:12:42.674Z,0.900
2023-03-14T00:13:42.236Z,0.700
2023-03-14T00:14:41.905Z,0.800
2023-03-14T00:15:42.416Z,0.600
2023-03-14T00:16:42.188Z,0.900
2023-03-14T00:17:41.840Z,0.700
2023-03-14T00:18:42.299Z,0.700
2023-03-14T00:19:41.796Z,0.700
2023-03-14T00:20:42.317Z,0.700
2023-03-14T00:21:41.900Z,0.500
2023-03-14T00:22:42.392Z,0.600
2023-03-14T00:23:41.970Z,0.900
2023-03-14T00:24:42.599Z,0.600
2023-03-14T00:25:42.097Z,0.600
2023-03-14T00:26:42.700Z,0.600
2023-03-14T00:27:42.171Z,0.600
2023-03-14T00:28:43.055Z,0.900
2023-03-14T00:29:42.649Z,0.500
2023-03-14T00:30:42.121Z,0.500
2023-03-14T00:31:43.008Z,0.600
2023-03-14T00:32:42.823Z,0.800
2023-03-14T00:33:42.383Z,0.700
2023-03-14T00:34:42.522Z,0.500
2023-03-14T00:35:42.200Z,0.500
2023-03-14T00:36:41.863Z,0.500
2023-03-14T00:37:42.424Z,0.700
2023-03-14T00:38:42.001Z,0.700
2023-03-14T00:39:42.681Z,0.700
2023-03-14T00:40:42.238Z,0.300
2023-03-14T00:41:41.831Z,0.600
2023-03-14T00:42:42.340Z,0.500
2023-03-14T00:43:42.181Z,0.600
2023-03-14T00:44:42.755Z,0.600
2023-03-14T00:45:42.260Z,0.600
2023-03-14T00:46:42.130Z,0.500
2023-03-14T00:47:41.869Z,0.300
2023-03-14T00:48:42.407Z,0.500
2023-03-14T00:49:42.066Z,0.400
2023-03-14T00:50:42.784Z,0.500
2023-03-14T00:51:42.247Z,0.600
2023-03-14T00:52:41.700Z,0.400
2023-03-14T00:53:42.256Z,0.500
2023-03-14T00:54:41.781Z,0.600
2023-03-14T00:55:42.340Z,0.400
2023-03-14T00:56:41.938Z,0.300
2023-03-14T00:57:42.517Z,0.400
2023-03-14T00:58:42.225Z,0.400
2023-03-14T00:59:41.950Z,0.500
2023-03-14T01:00:42.526Z,0.500
2023-03-14T01:01:42.319Z,1.800
2023-03-14T01:02:42.216Z,1.300
2023-03-14T01:03:42.132Z,0.500
2023-03-14T01:04:42.705Z,0.900
2023-03-14T01:05:42.377Z,0.700
2023-03-14T01:06:41.954Z,0.400
2023-03-14T01:07:42.465Z,0.500
2023-03-14T01:08:41.994Z,0.400
2023-03-14T01:09:42.535Z,0.500
2023-03-14T01:10:42.079Z,0.400
2023-03-14T01:11:42.640Z,0.400
2023-03-14T01:12:42.279Z,0.400
2023-03-14T01:13:41.692Z,0.300
2023-03-14T01:14:42.375Z,0.600
2023-03-14T01:15:41.982Z,0.400
2023-03-14T01:16:42.764Z,0.400
2023-03-14T01:17:42.564Z,0.300
2023-03-14T01:18:42.207Z,0.300
2023-03-14T01:19:42.833Z,0.200
2023-03-14T01:20:42.430Z,0.200
2023-03-14T01:21:42.092Z,0.300
2023-03-14T01:22:42.596Z,0.300
2023-03-14T01:23:42.240Z,0.400
2023-03-14T01:24:41.913Z,0.300
2023-03-14T01:25:42.421Z,0.300
2023-03-14T01:26:41.980Z,0.300
2023-03-14T01:27:42.532Z,0.400
2023-03-14T01:28:42.082Z,0.300
2023-03-14T01:29:42.666Z,0.200
2023-03-14T01:30:42.239Z,0.200
2023-03-14T01:31:42.066Z,0.400
2023-03-14T01:32:43.140Z,0.300
2023-03-14T01:33:41.840Z,0.400
2023-03-14T01:34:42.881Z,0.300
2023-03-14T01:35:42.510Z,0.200
2023-03-14T01:36:44.869Z,0.300
2023-03-14T01:37:42.412Z,0.300
2023-03-14T01:38:42.053Z,0.200
2023-03-14T01:39:42.657Z,0.200
2023-03-14T01:40:42.481Z,0.300
2023-03-14T01:41:42.219Z,0.300
2023-03-14T01:42:42.776Z,0.200
2023-03-14T01:43:42.358Z,0.200
2023-03-14T01:44:41.944Z,0.200
2023-03-14T01:45:42.645Z,0.200
2023-03-14T01:46:42.331Z,0.300
2023-03-14T01:47:41.912Z,0.300
2023-03-14T01:48:42.422Z,0.200
2023-03-14T01:49:41.950Z,0.200
2023-03-14T01:50:42.504Z,0.200
2023-03-14T01:51:42.027Z,0.300
2023-03-14T01:52:42.518Z,0.300
2023-03-14T01:53:42.003Z,0.300
2023-03-14T01:54:42.605Z,0.300
2023-03-14T01:55:42.117Z,0.300
2023-03-14T01:56:42.710Z,0.300
2023-03-14T01:57:42.283Z,0.300
2023-03-14T01:58:41.860Z,0.400
2023-03-14T01:59:42.396Z,0.300
2023-03-14T02:00:41.989Z,0.300
2023-03-14T02:01:42.817Z,0.300
2023-03-14T02:02:42.397Z,0.300
2023-03-14T02:03:42.139Z,0.300
2023-03-14T02:04:41.901Z,0.400
2023-03-14T02:05:42.472Z,0.300
2023-03-14T02:06:42.384Z,0.400
2023-03-14T02:07:41.853Z,0.400
2023-03-14T02:08:42.420Z,0.300
2023-03-14T02:09:41.995Z,0.300
2023-03-14T02:10:42.527Z,0.300
2023-03-14T02:11:42.202Z,0.500
2023-03-14T02:12:41.809Z,0.300
2023-03-14T02:13:42.436Z,0.400
2023-03-14T02:14:42.039Z,0.400
2023-03-14T02:15:42.528Z,0.600
2023-03-14T02:16:42.313Z,0.200
2023-03-14T02:17:41.936Z,0.400
2023-03-14T02:18:42.500Z,0.500
2023-03-14T02:19:42.016Z,0.400
2023-03-14T02:20:42.718Z,0.500
2023-03-14T02:21:42.324Z,0.300
2023-03-14T02:22:41.874Z,0.500
2023-03-14T02:23:42.400Z,0.500
2023-03-14T02:24:42.073Z,0.300
2023-03-14T02:25:42.629Z,0.500
2023-03-14T02:26:42.209Z,0.500
2023-03-14T02:27:42.713Z,0.300
2023-03-14T02:28:42.309Z,0.300
2023-03-14T02:29:41.841Z,0.300
2023-03-14T02:30:42.499Z,0.400
2023-03-14T02:31:42.262Z,0.400
2023-03-14T02:32:42.082Z,0.500
2023-03-14T02:33:41.825Z,0.300
2023-03-14T02:34:42.353Z,0.300
2023-03-14T02:35:41.958Z,0.300
2023-03-14T02:36:42.647Z,0.300
2023-03-14T02:37:42.233Z,0.500
2023-03-14T02:38:41.790Z,0.400
2023-03-14T02:39:42.374Z,0.500
2023-03-14T02:40:42.102Z,0.300
2023-03-14T02:41:42.816Z,0.400
2023-03-14T02:42:42.304Z,0.500
2023-03-14T02:43:41.868Z,0.500
2023-03-14T02:44:42.400Z,0.600
2023-03-14T02:45:41.870Z,0.500
2023-03-14T02:46:42.506Z,0.600
2023-03-14T02:47:42.152Z,0.600
2023-03-14T02:48:41.822Z,0.500
2023-03-14T02:49:42.377Z,0.700
2023-03-14T02:50:42.068Z,0.500
2023-03-14T02:51:42.681Z,0.700
2023-03-14T02:52:42.221Z,0.600
2023-03-14T02:53:41.771Z,0.700
2023-03-14T02:54:42.201Z,0.700
2023-03-14T02:55:41.781Z,0.500
2023-03-14T02:56:42.369Z,0.400
2023-03-14T02:57:41.872Z,0.600
2023-03-14T02:58:42.436Z,0.400
2023-03-14T02:59:41.911Z,0.700
2023-03-14T03:00:42.621Z,0.600
2023-03-14T03:01:42.463Z,0.500
2023-03-14T03:02:42.086Z,0.600
2023-03-14T03:03:42.807Z,0.500
2023-03-14T03:04:42.396Z,0.300
2023-03-14T03:05:42.104Z,0.400
2023-03-14T03:06:42.600Z,0.500
2023-03-14T03:07:42.072Z,0.300
2023-03-14T03:08:42.857Z,0.500
2023-03-14T03:09:42.364Z,0.300
2023-03-14T03:10:41.909Z,0.400
2023-03-14T03:11:42.448Z,0.500
2023-03-14T03:12:41.903Z,0.500
2023-03-14T03:13:42.476Z,0.300
2023-03-14T03:14:42.043Z,0.400
2023-03-14T03:15:42.744Z,0.600
2023-03-14T03:16:42.391Z,0.500
2023-03-14T03:17:42.074Z,0.600
2023-03-14T03:18:42.927Z,0.500
2023-03-14T03:19:42.426Z,0.600
2023-03-14T03:20:42.015Z,0.700
2023-03-14T03:21:42.561Z,0.600
2023-03-14T03:22:42.136Z,0.600
2023-03-14T03:23:42.696Z,0.400
2023-03-14T03:24:42.234Z,0.500
2023-03-14T03:25:41.793Z,0.500
2023-03-14T03:26:42.309Z,0.300
2023-03-14T03:27:41.855Z,0.500
2023-03-14T03:28:42.447Z,0.500
2023-03-14T03:29:42.027Z,0.400
2023-03-14T03:30:42.811Z,0.400
2023-03-14T03:31:42.576Z,0.400
2023-03-14T03:32:42.207Z,0.600
2023-03-14T03:33:41.767Z,0.500
2023-03-14T03:34:42.280Z,0.600
2023-03-14T03:35:42.010Z,0.500
2023-03-14T03:36:42.756Z,0.400
2023-03-14T03:37:42.435Z,0.700
2023-03-14T03:38:41.976Z,0.600
2023-03-14T03:39:42.693Z,0.400
2023-03-14T03:40:42.576Z,0.400
2023-03-14T03:41:42.141Z,0.400
2023-03-14T03:42:42.776Z,0.500
2023-03-14T03:43:42.335Z,0.400
2023-03-14T03:44:42.061Z,0.300
2023-03-14T03:45:42.662Z,0.400
2023-03-14T03:46:42.436Z,0.400
2023-03-14T03:47:42.095Z,0.300
2023-03-14T03:48:42.636Z,0.400
2023-03-14T03:49:42.260Z,0.400
2023-03-14T03:50:41.863Z,0.600
2023-03-14T03:51:42.325Z,0.500
2023-03-14T03:52:41.972Z,0.500
2023-03-14T03:53:48.621Z,0.400
2023-03-14T03:54:42.214Z,0.500
2023-03-14T03:55:42.853Z,0.500
2023-03-14T03:56:42.531Z,0.600
2023-03-14T03:57:42.042Z,0.400
2023-03-14T03:58:42.713Z,0.500
2023-03-14T03:59:42.520Z,0.500
2023-03-14T04:00:42.132Z,0.500
2023-03-14T04:01:43.351Z,0.600
2023-03-14T04:02:42.816Z,0.500
2023-03-14T04:03:42.617Z,0.400
2023-03-14T04:04:42.722Z,0.600
2023-03-14T04:05:42.512Z,0.700
2023-03-14T04:06:42.346Z,0.800
2023-03-14T04:07:42.057Z,0.600
2023-03-14T04:08:42.566Z,0.800
2023-03-14T04:09:42.144Z,0.900
2023-03-14T04:10:42.652Z,0.800
2023-03-14T04:11:42.309Z,0.800
2023-03-14T04:12:41.917Z,0.600
2023-03-14T04:13:42.415Z,0.700
2023-03-14T04:14:42.097Z,0.700
2023-03-14T04:15:41.886Z,0.900
2023-03-14T04:16:48.523Z,0.800
2023-03-14T04:17:47.614Z,0.700
2023-03-14T04:18:46.247Z,0.700
2023-03-14T04:19:41.903Z,0.700
2023-03-14T04:20:42.676Z,0.700
2023-03-14T04:21:42.382Z,0.800
2023-03-14T04:22:44.171Z,0.700
2023-03-14T04:23:42.217Z,0.900
2023-03-14T04:24:41.754Z,1.100
2023-03-14T04:25:42.414Z,0.700
2023-03-14T04:26:41.913Z,0.800
2023-03-14T04:27:42.417Z,1.200
2023-03-14T04:28:41.979Z,0.700
2023-03-14T04:29:42.507Z,0.700
2023-03-14T04:30:42.025Z,0.900
2023-03-14T04:31:42.865Z,0.600
2023-03-14T04:32:42.561Z,0.700
2023-03-14T04:33:44.169Z,0.700
2023-03-14T04:34:42.515Z,0.700
2023-03-14T04:35:42.099Z,0.900
2023-03-14T04:36:43.452Z,0.900
2023-03-14T04:37:42.108Z,0.700
2023-03-14T04:38:42.579Z,0.800
2023-03-14T04:39:42.156Z,1.400
2023-03-14T04:40:42.875Z,0.800
2023-03-14T04:41:42.456Z,1.000
2023-03-14T04:42:42.182Z,0.900
2023-03-14T04:43:41.746Z,0.700
2023-03-14T04:44:42.369Z,0.900
2023-03-14T04:45:42.182Z,0.600
2023-03-14T04:46:42.914Z,0.700
2023-03-14T04:47:42.766Z,0.600
2023-03-14T04:48:42.275Z,0.500
2023-03-14T04:49:41.765Z,0.500
2023-03-14T04:50:42.293Z,0.500
2023-03-14T04:51:41.831Z,0.500
2023-03-14T04:52:42.343Z,0.600
2023-03-14T04:53:41.846Z,0.600
2023-03-14T04:54:42.419Z,0.400
2023-03-14T04:55:42.000Z,0.600
2023-03-14T04:56:42.639Z,0.600
2023-03-14T04:57:42.152Z,0.500
2023-03-14T04:58:41.845Z,0.700
2023-03-14T04:59:42.352Z,0.400
2023-03-14T05:00:41.888Z,0.700
2023-03-14T05:01:42.721Z,0.500
2023-03-14T05:02:42.497Z,0.500
2023-03-14T05:03:42.073Z,0.700
2023-03-14T05:04:42.631Z,0.500
2023-03-14T05:05:42.235Z,0.500
2023-03-14T05:06:41.756Z,0.600
2023-03-14T05:07:42.472Z,0.500
2023-03-14T05:08:41.972Z,0.700
2023-03-14T05:09:42.472Z,0.500
2023-03-14T05:10:42.104Z,0.600
2023-03-14T05:11:42.565Z,0.600
2023-03-14T05:12:42.174Z,0.500
2023-03-14T05:13:41.769Z,0.400
2023-03-14T05:14:42.389Z,0.500
2023-03-14T05:15:42.021Z,0.500
2023-03-14T05:16:43.189Z,0.600
2023-03-14T05:17:42.776Z,0.600
2023-03-14T05:18:42.388Z,0.500
2023-03-14T05:19:41.865Z,0.600
2023-03-14T05:20:42.582Z,0.500
2023-03-14T05:21:42.286Z,0.500
2023-03-14T05:22:42.057Z,0.400
2023-03-14T05:23:42.669Z,0.400
2023-03-14T05:24:42.157Z,0.600
2023-03-14T05:25:42.816Z,0.500
2023-03-14T05:26:42.648Z,0.600
2023-03-14T05:27:42.200Z,0.700
2023-03-14T05:28:41.735Z,0.600
2023-03-14T05:29:42.276Z,1.000
2023-03-14T05:30:41.876Z,0.700
2023-03-14T05:31:42.593Z,0.700
2023-03-14T05:32:42.513Z,0.700
2023-03-14T05:33:42.299Z,0.600
2023-03-14T05:34:41.864Z,0.600
2023-03-14T05:35:42.743Z,0.800
2023-03-14T05:36:42.453Z,0.600
2023-03-14T05:37:42.560Z,0.400
2023-03-14T05:38:42.075Z,0.900
2023-03-14T05:39:42.728Z,0.500
2023-03-14T05:40:42.530Z,0.700
2023-03-14T05:41:42.177Z,0.500
2023-03-14T05:42:42.760Z,0.500
2023-03-14T05:43:42.460Z,0.600
2023-03-14T05:44:42.073Z,0.400
2023-03-14T05:45:42.657Z,0.500
2023-03-14T05:46:42.369Z,0.600
2023-03-14T05:47:41.900Z,0.400
2023-03-14T05:48:42.478Z,0.500
2023-03-14T05:49:42.053Z,0.600
2023-03-14T05:50:42.617Z,0.700
2023-03-14T05:51:42.150Z,0.600
2023-03-14T05:52:42.698Z,0.500
2023-03-14T05:53:42.220Z,0.800
2023-03-14T05:54:42.698Z,0.800
2023-03-14T05:55:42.241Z,0.500
2023-03-14T05:56:41.767Z,0.400
2023-03-14T05:57:42.552Z,0.600
2023-03-14T05:58:42.053Z,0.500
2023-03-14T05:59:42.582Z,0.600
2023-03-14T06:00:42.115Z,0.500
2023-03-14T06:01:42.741Z,0.700
2023-03-14T06:02:42.620Z,0.700
2023-03-14T06:03:42.340Z,1.100
2023-03-14T06:04:42.073Z,0.600
2023-03-14T06:05:41.835Z,0.600
2023-03-14T06:06:42.440Z,0.900
2023-03-14T06:07:42.137Z,0.600
2023-03-14T06:08:42.731Z,0.600
2023-03-14T06:09:42.349Z,0.900
2023-03-14T06:10:42.029Z,0.800
2023-03-14T06:11:42.572Z,0.600
2023-03-14T06:12:42.429Z,0.800
2023-03-14T06:13:41.945Z,0.800
2023-03-14T06:14:42.293Z,0.800
2023-03-14T06:15:41.601Z,0.900
2023-03-14T06:16:42.294Z,0.600
2023-03-14T06:17:41.853Z,0.800
2023-03-14T06:18:42.254Z,0.600
2023-03-14T06:19:41.694Z,0.600
2023-03-14T06:20:42.097Z,0.800
2023-03-14T06:21:42.403Z,0.800
2023-03-14T06:22:41.764Z,0.900
2023-03-14T06:23:42.255Z,0.600
2023-03-14T06:24:41.547Z,0.600
2023-03-14T06:25:42.006Z,0.900
2023-03-14T06:26:42.413Z,0.800
2023-03-14T06:27:41.795Z,0.700
2023-03-14T06:28:42.448Z,0.600
2023-03-14T06:29:41.706Z,0.600
2023-03-14T06:30:42.189Z,0.800
2023-03-14T06:31:42.472Z,0.900
2023-03-14T06:32:41.969Z,1.200
2023-03-14T06:33:42.497Z,0.900
2023-03-14T06:34:41.970Z,0.900
2023-03-14T06:35:42.236Z,1.000
2023-03-14T06:36:41.649Z,1.400
2023-03-14T06:37:42.130Z,1.300
2023-03-14T06:38:42.393Z,1.400
2023-03-14T06:39:41.875Z,1.300
2023-03-14T06:40:42.429Z,0.800
2023-03-14T06:41:41.861Z,1.100
2023-03-14T06:42:42.289Z,1.400
2023-03-14T06:43:41.572Z,1.500
2023-03-14T06:44:41.995Z,1.100
2023-03-14T06:45:42.413Z,1.300
2023-03-14T06:46:42.440Z,1.300
2023-03-14T06:47:41.808Z,1.500
2023-03-14T06:48:42.240Z,1.600
2023-03-14T06:49:41.929Z,1.800
2023-03-14T06:50:42.265Z,1.600
2023-03-14T06:51:41.658Z,1.400
2023-03-14T06:52:42.025Z,1.200
2023-03-14T06:53:42.563Z,1.400
2023-03-14T06:54:41.835Z,1.300
2023-03-14T06:55:42.247Z,1.300
2023-03-14T06:56:41.751Z,1.100
2023-03-14T06:57:42.156Z,1.500
2023-03-14T06:58:42.570Z,1.400
2023-03-14T06:59:41.882Z,1.300
2023-03-14T07:00:42.417Z,1.400
2023-03-14T07:01:42.214Z,1.400
2023-03-14T07:02:51.747Z,1.200
2023-03-14T07:03:42.148Z,1.400
2023-03-14T07:04:42.501Z,1.400
2023-03-14T07:05:41.905Z,1.400
2023-03-14T07:06:42.310Z,1.000
2023-03-14T07:07:41.673Z,1.100
2023-03-14T07:08:41.989Z,1.100
2023-03-14T07:09:42.300Z,0.900
2023-03-14T07:10:41.554Z,1.200
2023-03-14T07:11:41.913Z,1.300
2023-03-14T07:12:42.443Z,1.400
2023-03-14T07:13:41.801Z,1.400
2023-03-14T07:14:42.181Z,1.100
2023-03-14T07:15:47.674Z,1.200
2023-03-14T07:16:42.529Z,1.100
2023-03-14T07:17:42.072Z,1.100
2023-03-14T07:18:42.498Z,1.300
2023-03-14T07:19:41.820Z,1.300
2023-03-14T07:20:42.272Z,1.400
2023-03-14T07:21:41.773Z,1.400
2023-03-14T07:22:42.281Z,1.200
2023-03-14T07:23:42.576Z,1.300
2023-03-14T07:24:41.989Z,1.200
2023-03-14T07:25:42.492Z,1.400
2023-03-14T07:26:41.775Z,1.400
2023-03-14T07:27:44.872Z,1.200
2023-03-14T07:28:42.476Z,1.400
2023-03-14T07:29:41.745Z,1.100
2023-03-14T07:30:42.362Z,1.000
2023-03-14T07:31:42.121Z,1.100
2023-03-14T07:32:42.802Z,1.200
2023-03-14T07:33:45.082Z,1.200
2023-03-14T07:34:42.405Z,1.500
2023-03-14T07:35:41.751Z,1.500
2023-03-14T07:36:42.221Z,1.100
2023-03-14T07:37:42.617Z,1.100
2023-03-14T07:38:41.941Z,1.200
2023-03-14T07:39:42.324Z,1.200
2023-03-14T07:40:42.123Z,1.500
2023-03-14T07:41:42.485Z,1.400
2023-03-14T07:42:42.076Z,1.200
2023-03-14T07:43:42.647Z,1.700
2023-03-14T07:44:42.054Z,1.400
2023-03-14T07:45:44.578Z,2.700
2023-03-14T07:46:42.136Z,1.500
2023-03-14T07:47:42.514Z,1.600
2023-03-14T07:48:41.909Z,1.700
2023-03-14T07:49:42.377Z,1.900
2023-03-14T07:50:41.917Z,1.500
2023-03-14T07:51:42.248Z,1.500
2023-03-14T07:52:42.096Z,1.800
2023-03-14T07:53:42.525Z,1.400
2023-03-14T07:54:42.094Z,1.400
2023-03-14T07:55:42.594Z,1.900
2023-03-14T07:56:42.120Z,1.300
2023-03-14T07:57:42.619Z,1.600
2023-03-14T07:58:41.853Z,1.500
2023-03-14T07:59:42.239Z,1.500
2023-03-14T08:00:42.846Z,1.400
2023-03-14T08:01:42.380Z,1.300
2023-03-14T08:02:41.940Z,1.400
2023-03-14T08:03:42.699Z,1.500
2023-03-14T08:04:42.280Z,1.000
2023-03-14T08:05:41.856Z,1.000
2023-03-14T08:06:42.011Z,1.100
2023-03-14T08:07:42.310Z,1.400
2023-03-14T08:08:41.681Z,1.400
2023-03-14T08:09:42.181Z,1.200
2023-03-14T08:10:42.699Z,1.200
2023-03-14T08:11:42.164Z,1.300
2023-03-14T08:12:41.587Z,1.100
2023-03-14T08:13:42.316Z,1.100
2023-03-14T08:14:41.699Z,0.800
2023-03-14T08:15:42.295Z,1.300
2023-03-14T08:16:42.206Z,1.200
2023-03-14T08:17:45.037Z,1.000
2023-03-14T08:18:42.492Z,1.300
2023-03-14T08:19:41.917Z,1.000
2023-03-14T08:20:42.750Z,1.200
2023-03-14T08:21:42.261Z,1.200
2023-03-14T08:22:41.716Z,1.000
2023-03-14T08:23:42.285Z,1.000
2023-03-14T08:24:41.632Z,1.200
2023-03-14T08:25:42.675Z,0.900
2023-03-14T08:26:42.380Z,1.200
2023-03-14T08:27:44.885Z,1.100
2023-03-14T08:28:42.467Z,0.800
2023-03-14T08:29:42.252Z,1.100
2023-03-14T08:30:43.656Z,1.300
2023-03-14T08:31:42.384Z,1.200
2023-03-14T08:32:42.277Z,1.100
2023-03-14T08:33:42.228Z,1.600
2023-03-14T08:34:42.068Z,1.300
2023-03-14T08:35:42.955Z,1.600
2023-03-14T08:36:42.934Z,1.400
2023-03-14T08:37:47.449Z,0.900
2023-03-14T08:38:42.183Z,3.200
2023-03-14T08:39:43.471Z,1.400
2023-03-14T08:40:42.546Z,1.200
2023-03-14T08:41:42.204Z,1.100
2023-03-14T08:42:41.869Z,1.200
2023-03-14T08:43:42.721Z,1.000
2023-03-14T08:44:42.731Z,1.000
2023-03-14T08:45:42.523Z,1.300
2023-03-14T08:46:42.436Z,1.100
2023-03-14T08:47:42.246Z,0.900
2023-03-14T08:48:42.274Z,1.100
2023-03-14T08:49:42.107Z,1.000
2023-03-14T08:50:41.958Z,1.100
2023-03-14T08:51:42.608Z,1.300
2023-03-14T08:52:42.361Z,1.400
2023-03-14T08:53:42.235Z,1.200
2023-03-14T08:54:41.775Z,1.500
2023-03-14T08:55:42.540Z,1.100
2023-03-14T08:56:42.418Z,1.400
2023-03-14T08:57:42.243Z,1.500
2023-03-14T08:58:42.009Z,1.000
2023-03-14T08:59:42.600Z,1.300
2023-03-14T09:00:42.220Z,0.900
2023-03-14T09:01:42.036Z,1.000
2023-03-14T09:02:42.632Z,1.000
2023-03-14T09:03:42.567Z,1.000
2023-03-14T09:04:42.729Z,0.800
2023-03-14T09:05:42.512Z,1.100
2023-03-14T09:06:42.381Z,1.600
2023-03-14T09:07:42.358Z,1.000
2023-03-14T09:08:42.136Z,1.100
2023-03-14T09:09:42.732Z,0.800
2023-03-14T09:10:42.336Z,0.900
2023-03-14T09:11:41.936Z,0.900
2023-03-14T09:12:42.543Z,1.200
2023-03-14T09:13:42.248Z,1.000
2023-03-14T09:14:41.911Z,0.900
2023-03-14T09:15:42.713Z,1.100
2023-03-14T09:16:42.628Z,1.400
2023-03-14T09:17:42.493Z,0.800
2023-03-14T09:18:42.271Z,1.100
2023-03-14T09:19:42.056Z,1.000
2023-03-14T09:20:42.872Z,1.000
2023-03-14T09:21:42.626Z,1.200
2023-03-14T09:22:42.208Z,0.800
2023-03-14T09:23:43.280Z,0.900
2023-03-14T09:24:42.965Z,0.900
2023-03-14T09:25:42.589Z,0.900
2023-03-14T09:26:42.236Z,1.000
2023-03-14T09:27:41.829Z,1.000
2023-03-14T09:28:42.434Z,1.000
2023-03-14T09:29:42.109Z,0.800
2023-03-14T09:30:42.768Z,0.900
2023-03-14T09:31:42.366Z,0.800
2023-03-14T09:32:42.451Z,1.000
2023-03-14T09:33:42.283Z,1.300
2023-03-14T09:34:42.027Z,1.100
2023-03-14T09:35:42.879Z,0.700
2023-03-14T09:36:42.551Z,1.000
2023-03-14T09:37:42.413Z,0.800
2023-03-14T09:38:42.144Z,0.500
2023-03-14T09:39:42.985Z,0.700
2023-03-14T09:40:44.228Z,0.700
2023-03-14T09:41:41.933Z,0.400
2023-03-14T09:42:42.685Z,0.600
2023-03-14T09:43:42.761Z,0.700
2023-03-14T09:44:42.562Z,0.500
2023-03-14T09:45:42.366Z,0.800
2023-03-14T09:46:42.312Z,0.600
2023-03-14T09:47:52.739Z,0.700
2023-03-14T09:49:48.157Z,0.500
2023-03-14T09:50:46.693Z,0.800
2023-03-14T09:51:46.477Z,0.500
2023-03-14T09:52:46.349Z,0.500
2023-03-14T09:53:45.986Z,0.500
2023-03-14T09:54:46.597Z,0.600
2023-03-14T09:55:46.263Z,0.800
2023-03-14T09:56:45.940Z,0.600
2023-03-14T09:57:46.562Z,0.600
2023-03-14T09:58:46.242Z,0.600
2023-03-14T09:59:45.806Z,0.400
2023-03-14T10:00:46.593Z,0.600
2023-03-14T10:01:48.972Z,0.600
2023-03-14T10:02:45.808Z,0.700
2023-03-14T10:03:46.492Z,0.500
2023-03-14T10:04:46.281Z,0.600
2023-03-14T10:05:45.960Z,0.700
2023-03-14T10:06:46.680Z,0.600
2023-03-14T10:07:46.360Z,0.500
2023-03-14T10:08:45.967Z,0.700
2023-03-14T10:09:46.678Z,0.500
2023-03-14T10:10:46.325Z,0.600
2023-03-14T10:11:45.948Z,0.700
2023-03-14T10:12:46.991Z,0.600
2023-03-14T10:13:46.101Z,0.700
2023-03-14T10:14:46.796Z,0.600
2023-03-14T10:15:46.509Z,0.700
2023-03-14T10:16:46.224Z,1.000
2023-03-14T10:17:45.881Z,0.700
2023-03-14T10:18:46.545Z,0.700
2023-03-14T10:19:46.161Z,0.700
2023-03-14T10:20:46.005Z,0.700
2023-03-14T10:21:46.669Z,0.600
2023-03-14T10:22:46.670Z,0.800
2023-03-14T10:23:48.564Z,0.600
2023-03-14T10:24:46.196Z,0.600
2023-03-14T10:25:46.848Z,0.500
2023-03-14T10:26:46.525Z,0.600
2023-03-14T10:27:47.325Z,0.600
2023-03-14T10:28:46.037Z,0.500
2023-03-14T10:29:46.660Z,0.500
2023-03-14T10:30:46.444Z,0.600
2023-03-14T10:31:46.248Z,0.800
2023-03-14T10:32:46.119Z,0.400
2023-03-14T10:33:45.872Z,0.800
2023-03-14T10:34:46.518Z,0.700
2023-03-14T10:35:46.283Z,0.600
2023-03-14T10:36:49.020Z,0.500
2023-03-14T10:37:46.774Z,0.600
2023-03-14T10:38:46.577Z,0.500
2023-03-14T10:39:46.276Z,0.600
2023-03-14T10:40:45.965Z,0.700
2023-03-14T10:41:46.634Z,0.700
2023-03-14T10:42:46.284Z,0.500
2023-03-14T10:43:46.156Z,0.600
2023-03-14T10:44:46.833Z,0.600
2023-03-14T10:45:46.700Z,0.500
2023-03-14T10:46:46.953Z,0.600
2023-03-14T10:47:46.657Z,0.600
2023-03-14T10:48:46.444Z,0.700
2023-03-14T10:49:46.054Z,0.800
2023-03-14T10:50:46.837Z,0.900
2023-03-14T10:51:46.560Z,0.800
2023-03-14T10:53:02.296Z,0.700
2023-03-14T10:54:51.625Z,0.700
2023-03-14T10:55:51.364Z,0.900
2023-03-14T10:56:51.132Z,0.600
2023-03-14T10:57:50.844Z,0.600
2023-03-14T10:58:51.539Z,0.400
2023-03-14T10:59:51.224Z,0.800
2023-03-14T11:00:50.916Z,0.800
2023-03-14T11:01:52.096Z,0.700
2023-03-14T11:02:50.931Z,0.700
2023-03-14T11:03:51.684Z,0.600
2023-03-14T11:04:51.515Z,0.800
2023-03-14T11:05:51.437Z,0.600
2023-03-14T11:06:51.029Z,0.500
2023-03-14T11:07:51.845Z,0.500
2023-03-14T11:08:51.464Z,0.800
2023-03-14T11:09:50.999Z,0.600
2023-03-14T11:10:51.709Z,0.400
2023-03-14T11:11:51.335Z,0.500
2023-03-14T11:12:51.046Z,0.500
2023-03-14T11:13:51.633Z,0.700
2023-03-14T11:14:51.281Z,0.600
2023-03-14T11:15:51.178Z,0.500
2023-03-14T11:16:51.353Z,0.900
2023-03-14T11:17:50.923Z,0.700
2023-03-14T11:18:51.805Z,0.500
2023-03-14T11:19:52.239Z,0.600
2023-03-14T11:20:51.228Z,0.500
2023-03-14T11:21:51.004Z,0.400
2023-03-14T11:22:51.620Z,0.400
2023-03-14T11:23:51.248Z,0.400
2023-03-14T11:24:50.960Z,0.400
2023-03-14T11:25:51.512Z,0.300
2023-03-14T11:26:51.073Z,0.500
2023-03-14T11:27:51.688Z,0.200
2023-03-14T11:28:51.498Z,0.400
2023-03-14T11:29:51.217Z,0.400
2023-03-14T11:30:51.055Z,0.400
2023-03-14T11:31:51.919Z,0.400
2023-03-14T11:32:52.496Z,0.300
2023-03-14T11:33:51.420Z,0.300
2023-03-14T11:34:51.027Z,0.300
2023-03-14T11:35:52.349Z,0.400
2023-03-14T11:36:51.514Z,0.300
2023-03-14T11:37:51.725Z,0.400
2023-03-14T11:38:51.668Z,0.400
2023-03-14T11:39:52.290Z,0.400
2023-03-14T11:40:51.343Z,0.300
2023-03-14T11:41:51.653Z,0.200
2023-03-14T11:42:50.896Z,0.300
2023-03-14T11:43:51.473Z,0.300
2023-03-14T11:44:51.137Z,0.300
2023-03-14T11:45:52.213Z,0.300
2023-03-14T11:46:51.149Z,0.400
2023-03-14T11:47:50.996Z,0.200
2023-03-14T11:48:51.882Z,0.200
2023-03-14T11:49:51.537Z,0.300
2023-03-14T11:50:51.344Z,0.200
2023-03-14T11:51:51.435Z,0.200
2023-03-14T11:52:51.145Z,0.200
2023-03-14T11:53:51.861Z,0.200
2023-03-14T11:54:51.744Z,0.400
2023-03-14T11:55:51.541Z,0.200
2023-03-14T11:56:51.409Z,0.100
2023-03-14T11:57:51.231Z,0.200
2023-03-14T11:58:53.832Z,0.200
2023-03-14T11:59:51.464Z,0.200
2023-03-14T12:00:51.156Z,0.300
2023-03-14T12:01:51.890Z,0.300
2023-03-14T12:02:51.989Z,0.300
2023-03-14T12:03:51.788Z,0.400
2023-03-14T12:04:51.571Z,0.400
2023-03-14T12:05:51.363Z,0.500
2023-03-14T12:06:51.066Z,0.500
2023-03-14T12:07:51.772Z,0.400
2023-03-14T12:08:51.429Z,0.400
2023-03-14T12:09:51.094Z,0.400
2023-03-14T12:10:51.702Z,0.500
2023-03-14T12:11:51.311Z,0.500
2023-03-14T12:12:50.997Z,0.400
2023-03-14T12:13:51.573Z,0.400
2023-03-14T12:14:51.213Z,0.400
2023-03-14T12:15:50.853Z,0.300
2023-03-14T12:16:57.163Z,0.400
2023-03-14T12:17:50.942Z,0.600
2023-03-14T12:18:51.545Z,0.200
2023-03-14T12:19:51.277Z,0.200
2023-03-14T12:20:51.024Z,0.600
2023-03-14T12:21:51.628Z,0.300
2023-03-14T12:22:51.275Z,0.300
2023-03-14T12:23:50.847Z,0.300
2023-03-14T12:24:51.484Z,0.400
2023-03-14T12:25:51.055Z,0.400
2023-03-14T12:26:51.747Z,0.400
2023-03-14T12:27:51.297Z,0.300
2023-03-14T12:28:51.085Z,0.200
2023-03-14T12:29:51.667Z,0.500
2023-03-14T12:30:51.521Z,0.300
2023-03-14T12:31:51.382Z,0.300
2023-03-14T12:32:51.259Z,0.300
2023-03-14T12:33:50.965Z,0.200
2023-03-14T12:34:51.610Z,0.400
2023-03-14T12:35:51.408Z,0.300
2023-03-14T12:36:51.309Z,0.300
2023-03-14T12:37:50.877Z,0.300
2023-03-14T12:38:51.525Z,0.300
2023-03-14T12:39:51.196Z,0.300
2023-03-14T12:40:51.053Z,0.300
2023-03-14T12:41:51.668Z,0.400
2023-03-14T12:42:59.766Z,0.400
2023-03-14T12:43:51.360Z,0.500
2023-03-14T12:44:51.082Z,0.300
2023-03-14T12:45:52.211Z,0.200
2023-03-14T12:46:51.065Z,0.500
2023-03-14T12:47:51.754Z,0.300
2023-03-14T12:48:51.346Z,0.500
2023-03-14T12:49:51.171Z,0.300
2023-03-14T12:50:51.745Z,0.400
2023-03-14T12:51:51.409Z,0.300
2023-03-14T12:52:50.964Z,0.500
2023-03-14T12:53:52.001Z,0.400
2023-03-14T12:54:51.613Z,0.300